Time;durP1;ratioP1;P1;durP2;ratioP2;P2;SDS_P1;SDS_P2;PMS_P1;PMS_P2;Temp;Humidity;BMP_temperature;BMP_pressure;BME280_temperature;BME280_humidity;BME280_pressure;Samples;Min_cycle;Max_cycle;Signal;HPM_P1;HPM_P2
2021/12/30 00:01:19;;;;;;;1.10;0.93;;;7.70;78.40;;;;;;5021439;28;20029;-79
2021/12/30 00:03:46;;;;;;;2.57;1.10;;;7.60;78.70;;;;;;5030077;28;20021;-79
2021/12/30 00:06:12;;;;;;;1.53;1.33;;;7.60;79.00;;;;;;5023538;28;20473;-79
2021/12/30 00:08:38;;;;;;;1.57;1.23;;;7.50;79.00;;;;;;5017324;28;20045;-79
2021/12/30 00:11:06;;;;;;;1.93;1.60;;;7.50;79.20;;;;;;5033464;28;20357;-79
2021/12/30 00:13:33;;;;;;;2.97;2.30;;;7.50;79.40;;;;;;5030776;28;20021;-79
2021/12/30 00:15:59;;;;;;;3.43;2.63;;;7.50;79.70;;;;;;5018031;28;20037;-79
2021/12/30 00:18:26;;;;;;;5.37;3.13;;;7.70;79.60;;;;;;5017004;28;20466;-79
2021/12/30 00:20:52;;;;;;;4.77;3.53;;;7.80;79.50;;;;;;5030734;28;20025;-79
2021/12/30 00:23:18;;;;;;;2.60;2.40;;;7.80;79.20;;;;;;5029581;28;20542;-79
2021/12/30 00:25:44;;;;;;;2.83;2.10;;;7.80;78.90;;;;;;5022411;28;20029;-79
2021/12/30 00:28:19;;;;;;;3.20;2.43;;;7.80;79.10;;;;;;5028101;28;20091;-79
2021/12/30 00:30:46;;;;;;;1.97;1.73;;;7.80;79.10;;;;;;5022371;28;20025;-79
2021/12/30 00:33:12;;;;;;;3.17;1.67;;;7.80;78.90;;;;;;5020261;28;20017;-79
2021/12/30 00:35:38;;;;;;;1.77;1.40;;;7.80;79.10;;;;;;5027531;28;20100;-79
2021/12/30 00:38:05;;;;;;;2.73;1.70;;;7.80;78.70;;;;;;5031800;28;20034;-79
2021/12/30 00:40:32;;;;;;;2.63;1.60;;;7.80;78.90;;;;;;5030427;28;20021;-79
2021/12/30 00:42:59;;;;;;;1.73;1.33;;;7.70;78.70;;;;;;5027139;28;20080;-79
2021/12/30 00:45:29;;;;;;;1.17;1.03;;;7.60;79.00;;;;;;5021972;28;20501;-79
2021/12/30 00:47:55;;;;;;;2.13;1.20;;;7.60;79.10;;;;;;5024968;28;20032;-79
2021/12/30 00:50:22;;;;;;;2.33;1.80;;;7.50;79.50;;;;;;5025818;28;20026;-79
2021/12/30 00:52:48;;;;;;;1.60;1.33;;;7.60;79.40;;;;;;5019119;28;20029;-79
2021/12/30 00:55:13;;;;;;;3.23;1.97;;;7.70;79.80;;;;;;5019544;28;20121;-79
2021/12/30 00:57:41;;;;;;;3.40;2.30;;;7.70;78.70;;;;;;5023479;28;20498;-79
2021/12/30 01:00:11;;;;;;;2.70;2.50;;;7.80;79.50;;;;;;5028956;28;20124;-79
2021/12/30 01:02:37;;;;;;;3.17;2.40;;;7.80;78.70;;;;;;5026203;28;20021;-79
2021/12/30 01:05:03;;;;;;;3.43;2.00;;;7.90;78.80;;;;;;5025575;28;20582;-79
2021/12/30 01:07:29;;;;;;;4.17;2.43;;;8.00;78.70;;;;;;5021617;28;20036;-79
2021/12/30 01:09:55;;;;;;;3.57;2.60;;;8.10;78.50;;;;;;5022174;28;20021;-79
2021/12/30 01:12:21;;;;;;;3.30;2.00;;;8.10;78.30;;;;;;5030204;28;20868;-79
2021/12/30 01:14:48;;;;;;;3.83;2.50;;;8.00;78.00;;;;;;5029417;28;20097;-79
2021/12/30 01:17:22;;;;;;;5.97;2.60;;;8.00;78.00;;;;;;5026203;28;20025;-79
2021/12/30 01:19:50;;;;;;;9.13;3.93;;;7.90;78.10;;;;;;5026747;28;20025;-79
2021/12/30 01:22:26;;;;;;;4.27;2.77;;;7.80;78.60;;;;;;5029458;28;20017;-79
2021/12/30 01:24:52;;;;;;;2.90;2.37;;;7.90;78.60;;;;;;5027482;28;20057;-80
2021/12/30 01:27:21;;;;;;;3.30;2.50;;;7.90;78.00;;;;;;5022286;28;20108;-79
2021/12/30 01:29:48;;;;;;;3.83;2.47;;;7.80;78.30;;;;;;5026845;28;20037;-79
2021/12/30 01:32:15;;;;;;;2.93;2.63;;;7.80;78.50;;;;;;5025152;28;20488;-80
2021/12/30 01:34:41;;;;;;;3.83;2.27;;;7.80;78.50;;;;;;5029622;28;20064;-79
2021/12/30 01:37:07;;;;;;;4.40;3.07;;;7.80;78.40;;;;;;5020767;28;20512;-79
2021/12/30 01:39:36;;;;;;;3.80;2.80;;;7.80;78.50;;;;;;5021454;28;20034;-79
2021/12/30 01:42:03;;;;;;;4.40;3.80;;;7.80;78.50;;;;;;5030069;28;20029;-79
2021/12/30 01:44:29;;;;;;;4.20;3.80;;;7.80;78.80;;;;;;5032321;28;20109;-79
2021/12/30 01:46:56;;;;;;;3.63;3.27;;;7.80;78.80;;;;;;5026517;28;20054;-79
2021/12/30 01:49:24;;;;;;;5.93;4.00;;;7.80;78.80;;;;;;5031349;28;20045;-79
2021/12/30 01:51:50;;;;;;;4.90;3.57;;;8.00;78.90;;;;;;5029706;28;20018;-79
2021/12/30 01:54:17;;;;;;;4.63;3.80;;;8.00;78.70;;;;;;5025058;28;20184;-79
2021/12/30 01:56:42;;;;;;;7.30;3.57;;;8.00;78.60;;;;;;5026920;28;20025;-79
2021/12/30 01:59:09;;;;;;;3.93;3.33;;;8.00;78.70;;;;;;5026649;28;20037;-79
2021/12/30 02:01:35;;;;;;;3.20;2.90;;;8.00;78.60;;;;;;5026831;28;20034;-79
2021/12/30 02:04:01;;;;;;;4.43;3.20;;;7.90;78.50;;;;;;5028376;28;20049;-79
2021/12/30 02:06:27;;;;;;;3.13;2.83;;;7.90;78.90;;;;;;5031561;28;20384;-79
2021/12/30 02:08:53;;;;;;;4.67;3.60;;;7.90;78.90;;;;;;5022353;28;20026;-79
2021/12/30 02:11:20;;;;;;;5.33;4.10;;;7.90;78.80;;;;;;5028470;28;20101;-79
2021/12/30 02:13:49;;;;;;;10.73;6.20;;;7.90;78.70;;;;;;5026950;28;20025;-79
2021/12/30 02:16:17;;;;;;;4.60;3.87;;;7.90;78.90;;;;;;5025857;28;20025;-79
2021/12/30 02:18:43;;;;;;;6.07;4.20;;;8.00;78.90;;;;;;5027192;28;20030;-79
2021/12/30 02:21:09;;;;;;;6.33;4.00;;;8.10;78.70;;;;;;5028822;28;20037;-79
2021/12/30 02:23:37;;;;;;;3.20;2.90;;;7.90;78.40;;;;;;5028205;28;20035;-79
2021/12/30 02:26:04;;;;;;;4.07;3.23;;;7.90;79.10;;;;;;5026280;28;20095;-79
2021/12/30 02:28:33;;;;;;;3.47;3.17;;;8.00;79.00;;;;;;5026071;28;20484;-79
2021/12/30 02:31:03;;;;;;;4.07;3.53;;;8.00;78.90;;;;;;5027397;28;20445;-79
2021/12/30 02:33:29;;;;;;;5.63;4.30;;;8.10;78.60;;;;;;5024163;28;20021;-79
2021/12/30 02:35:56;;;;;;;4.77;3.57;;;8.00;78.60;;;;;;5026538;28;20088;-79
2021/12/30 02:38:22;;;;;;;4.37;3.97;;;7.90;78.60;;;;;;5026787;28;20079;-79
2021/12/30 02:40:52;;;;;;;4.70;4.20;;;7.80;78.70;;;;;;5026962;28;20025;-79
2021/12/30 02:43:21;;;;;;;5.67;5.07;;;7.80;79.20;;;;;;5026136;28;20515;-79
2021/12/30 02:45:47;;;;;;;4.97;4.33;;;7.80;79.30;;;;;;5024367;28;20045;-79
2021/12/30 02:48:26;;;;;;;5.90;5.30;;;7.80;79.70;;;;;;5031630;28;20017;-79
2021/12/30 02:50:54;;;;;;;3.67;3.37;;;7.90;79.50;;;;;;5023583;28;20032;-79
2021/12/30 02:53:20;;;;;;;3.13;2.77;;;7.90;79.70;;;;;;5025400;28;20723;-80
2021/12/30 02:55:47;;;;;;;5.20;3.03;;;8.00;79.60;;;;;;5027697;28;20017;-79
2021/12/30 02:58:14;;;;;;;4.27;3.57;;;8.30;79.30;;;;;;5027685;28;20036;-79
2021/12/30 03:00:41;;;;;;;3.80;3.40;;;8.30;78.60;;;;;;5029887;28;20036;-79
2021/12/30 03:03:07;;;;;;;4.50;4.10;;;8.20;78.50;;;;;;5027306;28;20018;-79
2021/12/30 03:05:33;;;;;;;5.30;4.40;;;8.10;78.50;;;;;;5029120;28;20530;-79
2021/12/30 03:07:59;;;;;;;3.10;2.80;;;8.10;78.80;;;;;;5024303;28;20042;-79
2021/12/30 03:10:28;;;;;;;3.37;3.07;;;8.10;78.90;;;;;;5024365;28;20029;-79
2021/12/30 03:13:03;;;;;;;3.43;2.93;;;7.90;79.20;;;;;;5024900;28;20021;-79
2021/12/30 03:15:30;;;;;;;3.07;2.53;;;7.90;79.50;;;;;;5022112;28;20021;-79
2021/12/30 03:17:55;;;;;;;4.17;3.27;;;7.90;79.80;;;;;;5029118;28;20033;-79
2021/12/30 03:20:21;;;;;;;5.07;4.33;;;8.00;79.70;;;;;;5030906;28;20025;-79
2021/12/30 03:22:47;;;;;;;4.80;4.30;;;8.00;79.40;;;;;;5027251;28;20041;-79
2021/12/30 03:25:15;;;;;;;7.13;4.83;;;8.10;79.40;;;;;;5025498;28;20050;-79
2021/12/30 03:27:42;;;;;;;4.27;3.80;;;8.00;79.70;;;;;;5021297;28;20105;-78
2021/12/30 03:30:12;;;;;;;4.60;3.17;;;8.20;79.80;;;;;;5024620;28;20032;-79
2021/12/30 03:32:38;;;;;;;5.60;3.43;;;8.30;79.80;;;;;;5020765;28;20017;-79
2021/12/30 03:35:05;;;;;;;4.43;4.00;;;8.40;79.00;;;;;;5026241;28;20449;-79
2021/12/30 03:37:31;;;;;;;3.13;2.67;;;8.50;78.50;;;;;;5026329;28;20048;-79
2021/12/30 03:39:57;;;;;;;3.70;2.93;;;8.40;78.50;;;;;;5025208;28;20022;-79
2021/12/30 03:42:23;;;;;;;2.50;2.30;;;8.40;78.30;;;;;;5026873;28;20124;-78
2021/12/30 03:44:49;;;;;;;3.17;2.87;;;8.40;78.50;;;;;;5021364;28;20041;-79
2021/12/30 03:47:19;;;;;;;3.40;3.10;;;8.30;78.70;;;;;;5026069;28;20080;-78
2021/12/30 03:49:46;;;;;;;3.60;2.90;;;8.30;78.70;;;;;;5025571;28;20467;-79
2021/12/30 03:52:23;;;;;;;4.53;3.40;;;8.30;78.80;;;;;;5023252;28;20698;-77
2021/12/30 03:54:49;;;;;;;5.70;4.07;;;8.30;78.90;;;;;;5024151;28;20028;-78
2021/12/30 03:57:14;;;;;;;3.93;3.43;;;8.30;78.80;;;;;;5024278;28;20469;-77
2021/12/30 03:59:40;;;;;;;4.00;3.60;;;8.30;78.90;;;;;;5022691;28;20111;-80
2021/12/30 04:02:06;;;;;;;4.80;4.30;;;8.20;78.90;;;;;;5025577;28;20053;-80
2021/12/30 04:04:32;;;;;;;5.20;4.17;;;8.20;79.10;;;;;;5024112;28;20116;-80
2021/12/30 04:06:58;;;;;;;4.40;4.00;;;8.30;79.30;;;;;;5021478;28;20029;-77
2021/12/30 04:09:24;;;;;;;5.93;4.63;;;8.30;79.20;;;;;;5024206;28;20085;-78
2021/12/30 04:11:50;;;;;;;4.80;4.30;;;8.30;79.20;;;;;;5026402;28;20027;-78
2021/12/30 04:14:15;;;;;;;5.53;4.60;;;8.30;79.00;;;;;;5024685;28;20105;-79
2021/12/30 04:16:41;;;;;;;4.93;4.43;;;8.20;79.30;;;;;;5024884;28;20049;-79
2021/12/30 04:19:07;;;;;;;4.10;3.70;;;8.10;79.40;;;;;;5023546;28;20025;-79
2021/12/30 04:21:33;;;;;;;5.93;3.87;;;8.10;79.50;;;;;;5028089;28;20108;-78
2021/12/30 04:23:59;;;;;;;4.03;3.50;;;8.10;80.00;;;;;;5022601;28;20029;-79
2021/12/30 04:26:25;;;;;;;4.63;4.23;;;8.20;79.80;;;;;;5023230;28;20052;-79
2021/12/30 04:28:52;;;;;;;4.63;3.93;;;8.20;79.40;;;;;;5028238;28;20033;-79
2021/12/30 04:31:18;;;;;;;4.50;3.20;;;8.10;79.60;;;;;;5027849;28;20108;-79
2021/12/30 04:33:44;;;;;;;4.53;3.70;;;8.10;80.20;;;;;;5026246;28;20109;-79
2021/12/30 04:36:11;;;;;;;5.17;4.30;;;8.20;79.90;;;;;;5024982;28;20021;-79
2021/12/30 04:38:37;;;;;;;5.60;5.00;;;8.20;79.50;;;;;;5021177;28;20026;-79
2021/12/30 04:41:05;;;;;;;5.37;4.83;;;8.20;79.70;;;;;;5028075;28;20030;-79
2021/12/30 04:43:30;;;;;;;4.73;3.80;;;8.20;79.90;;;;;;5024878;28;20083;-79
2021/12/30 04:45:58;;;;;;;5.57;3.60;;;8.20;79.80;;;;;;5030998;28;20379;-79
2021/12/30 04:48:24;;;;;;;4.20;2.77;;;8.30;79.90;;;;;;5029052;28;20045;-79
2021/12/30 04:50:50;;;;;;;3.83;3.17;;;8.40;79.70;;;;;;5024921;28;20021;-79
2021/12/30 04:53:18;;;;;;;4.77;4.37;;;8.60;79.00;;;;;;5024709;28;20021;-79
2021/12/30 04:55:44;;;;;;;4.47;3.30;;;8.50;79.20;;;;;;5025082;28;20491;-79
2021/12/30 04:58:10;;;;;;;4.97;3.73;;;8.60;78.80;;;;;;5024575;28;20025;-79
2021/12/30 05:00:37;;;;;;;4.87;3.90;;;8.50;78.70;;;;;;5028516;28;20038;-79
2021/12/30 05:03:10;;;;;;;4.50;3.80;;;8.40;78.70;;;;;;5027887;28;20096;-79
2021/12/30 05:05:47;;;;;;;8.03;4.77;;;8.40;78.90;;;;;;5029034;28;20034;-79
2021/12/30 05:08:15;;;;;;;7.27;5.37;;;8.50;79.00;;;;;;5024366;28;20030;-79
2021/12/30 05:10:42;;;;;;;5.03;4.13;;;8.40;78.90;;;;;;5024058;28;20022;-79
2021/12/30 05:13:09;;;;;;;4.50;4.00;;;8.50;78.60;;;;;;5026431;28;20021;-79
2021/12/30 05:15:36;;;;;;;4.73;3.60;;;8.50;78.60;;;;;;5028370;28;20037;-79
2021/12/30 05:18:03;;;;;;;5.07;3.83;;;8.50;79.00;;;;;;5025911;28;20045;-79
2021/12/30 05:20:29;;;;;;;5.60;3.60;;;8.60;78.50;;;;;;5028420;28;20068;-79
2021/12/30 05:22:55;;;;;;;6.60;4.80;;;8.50;78.20;;;;;;5032019;28;20755;-79
2021/12/30 05:25:21;;;;;;;5.13;4.63;;;8.50;78.80;;;;;;5030424;28;20056;-78
2021/12/30 05:27:49;;;;;;;6.60;5.00;;;8.40;79.10;;;;;;5033476;28;20108;-79
2021/12/30 05:30:16;;;;;;;5.77;4.53;;;8.40;78.70;;;;;;5028549;28;20033;-79
2021/12/30 05:32:42;;;;;;;5.00;4.50;;;8.40;78.70;;;;;;5028479;28;20022;-78
2021/12/30 05:35:10;;;;;;;6.53;4.80;;;8.40;78.90;;;;;;5031744;28;20362;-78
2021/12/30 05:37:36;;;;;;;6.67;5.67;;;8.40;78.80;;;;;;5033008;28;20033;-78
2021/12/30 05:40:02;;;;;;;5.93;5.07;;;8.40;78.90;;;;;;5026449;28;20037;-78
2021/12/30 05:42:28;;;;;;;6.60;4.73;;;8.40;78.90;;;;;;5024795;28;20121;-78
2021/12/30 05:44:54;;;;;;;11.43;8.97;;;8.40;78.80;;;;;;5026057;28;20112;-78
2021/12/30 05:47:21;;;;;;;9.83;7.50;;;8.40;78.80;;;;;;5023799;28;20034;-78
2021/12/30 05:49:47;;;;;;;8.73;6.70;;;8.40;79.00;;;;;;5025342;28;20473;-78
2021/12/30 05:52:13;;;;;;;8.07;6.10;;;8.40;78.60;;;;;;5026491;28;20026;-79
2021/12/30 05:54:40;;;;;;;8.27;6.17;;;8.30;78.60;;;;;;5028546;28;20029;-79
2021/12/30 05:57:06;;;;;;;11.60;8.23;;;8.30;78.60;;;;;;5023524;28;20025;-79
2021/12/30 05:59:31;;;;;;;11.93;8.30;;;8.40;78.60;;;;;;5031978;28;20492;-79
2021/12/30 06:01:57;;;;;;;8.93;7.13;;;8.30;79.30;;;;;;5025464;28;20052;-78
2021/12/30 06:04:23;;;;;;;10.30;7.27;;;8.30;79.20;;;;;;5032442;28;20057;-79
2021/12/30 06:06:49;;;;;;;11.57;7.70;;;8.30;78.80;;;;;;5030189;28;20028;-79
2021/12/30 06:09:14;;;;;;;10.33;6.90;;;8.30;78.70;;;;;;5029428;28;20037;-79
2021/12/30 06:11:40;;;;;;;11.90;8.13;;;8.30;78.60;;;;;;5026117;28;20485;-79
2021/12/30 06:14:06;;;;;;;12.20;7.43;;;8.30;78.60;;;;;;5027099;28;20031;-79
2021/12/30 06:16:33;;;;;;;10.13;7.80;;;8.30;78.70;;;;;;5026996;28;20049;-78
2021/12/30 06:18:59;;;;;;;13.60;7.87;;;8.30;78.70;;;;;;5028484;28;20156;-78
2021/12/30 06:21:25;;;;;;;9.67;8.20;;;8.20;78.70;;;;;;5032304;28;20055;-78
2021/12/30 06:23:52;;;;;;;10.03;8.57;;;8.20;78.70;;;;;;5029894;28;20108;-78
2021/12/30 06:26:18;;;;;;;10.83;8.33;;;8.20;79.00;;;;;;5020556;28;20258;-79
2021/12/30 06:28:44;;;;;;;11.97;8.10;;;8.20;78.90;;;;;;5022815;28;20034;-79
2021/12/30 06:31:10;;;;;;;12.87;8.67;;;8.20;78.80;;;;;;5021433;28;20028;-79
2021/12/30 06:33:36;;;;;;;10.03;8.47;;;8.20;78.90;;;;;;5025357;28;20060;-78
2021/12/30 06:36:04;;;;;;;11.20;9.07;;;8.20;78.80;;;;;;5025155;28;20113;-78
2021/12/30 06:38:29;;;;;;;11.23;9.47;;;8.20;78.60;;;;;;5023061;28;20021;-78
2021/12/30 06:40:55;;;;;;;11.63;9.17;;;8.20;78.60;;;;;;5018876;28;20100;-78
2021/12/30 06:43:21;;;;;;;32.17;10.63;;;8.20;78.60;;;;;;5023507;28;20125;-78
2021/12/30 06:45:46;;;;;;;13.00;9.70;;;8.20;78.60;;;;;;5027382;28;20100;-78
2021/12/30 06:48:15;;;;;;;13.43;11.00;;;8.20;78.60;;;;;;5026038;28;20097;-78
2021/12/30 06:50:42;;;;;;;14.80;9.93;;;8.20;78.60;;;;;;5028189;28;20056;-78
2021/12/30 06:53:08;;;;;;;14.27;11.90;;;8.20;78.60;;;;;;5028730;28;20018;-78
2021/12/30 06:55:33;;;;;;;13.50;11.20;;;8.20;78.80;;;;;;5028139;28;20027;-79
2021/12/30 06:57:59;;;;;;;16.33;13.63;;;8.20;78.70;;;;;;5026192;28;20029;-79
2021/12/30 07:00:25;;;;;;;13.97;12.40;;;8.20;78.50;;;;;;5025811;28;20437;-79
2021/12/30 07:02:51;;;;;;;14.33;12.33;;;8.20;79.10;;;;;;5026379;28;20026;-79
2021/12/30 07:05:17;;;;;;;13.83;11.33;;;8.20;78.40;;;;;;5031799;28;20108;-79
2021/12/30 07:07:46;;;;;;;15.70;11.63;;;8.20;78.30;;;;;;5025247;28;20029;-79
2021/12/30 07:10:13;;;;;;;14.53;10.50;;;8.20;78.40;;;;;;5026048;28;20029;-79
2021/12/30 07:12:39;;;;;;;15.43;11.77;;;8.20;78.20;;;;;;5023368;28;20028;-79
2021/12/30 07:15:06;;;;;;;11.83;10.37;;;8.20;78.40;;;;;;5029694;28;20456;-78
2021/12/30 07:17:32;;;;;;;16.43;13.13;;;8.10;78.30;;;;;;5020805;28;20021;-79
2021/12/30 07:19:58;;;;;;;14.73;12.37;;;8.10;78.40;;;;;;5026171;28;20124;-79
2021/12/30 07:22:24;;;;;;;16.67;12.23;;;8.10;78.70;;;;;;5032164;28;20112;-79
2021/12/30 07:24:50;;;;;;;13.00;10.40;;;8.00;78.70;;;;;;5028887;28;20056;-79
2021/12/30 07:27:16;;;;;;;13.93;10.30;;;8.10;78.90;;;;;;5030170;28;20053;-79
2021/12/30 07:29:42;;;;;;;12.73;10.73;;;8.10;78.90;;;;;;5023960;28;20029;-79
2021/12/30 07:32:07;;;;;;;12.63;10.93;;;8.20;78.80;;;;;;5020477;28;20018;-78
2021/12/30 07:34:33;;;;;;;11.77;10.37;;;8.20;78.90;;;;;;5020113;28;20029;-79
2021/12/30 07:36:59;;;;;;;20.00;14.80;;;8.10;78.70;;;;;;5024727;28;20615;-79
2021/12/30 07:39:24;;;;;;;16.37;10.57;;;8.10;79.10;;;;;;5027275;28;20044;-79
2021/12/30 07:41:51;;;;;;;13.63;10.07;;;8.10;78.90;;;;;;5026449;28;20065;-79
2021/12/30 07:44:16;;;;;;;18.17;11.70;;;8.20;79.70;;;;;;5027043;28;20112;-78
2021/12/30 07:46:42;;;;;;;13.83;11.40;;;8.30;78.80;;;;;;5031423;28;20901;-79
2021/12/30 07:49:08;;;;;;;14.63;11.30;;;8.30;78.70;;;;;;5028748;28;20068;-79
2021/12/30 07:51:34;;;;;;;18.07;13.63;;;8.30;78.60;;;;;;5027177;28;20104;-79
2021/12/30 07:53:59;;;;;;;21.53;14.10;;;8.30;78.80;;;;;;5026304;28;20026;-79
2021/12/30 07:56:25;;;;;;;17.70;11.20;;;8.20;78.90;;;;;;5023032;28;20472;-79
2021/12/30 07:58:51;;;;;;;17.10;14.43;;;8.30;79.30;;;;;;5020991;28;20029;-79
2021/12/30 08:01:17;;;;;;;21.97;16.23;;;8.50;78.70;;;;;;5025332;28;20025;-79
2021/12/30 08:03:43;;;;;;;18.97;12.40;;;8.40;78.40;;;;;;5020054;28;20052;-79
2021/12/30 08:06:08;;;;;;;21.67;14.20;;;8.40;78.50;;;;;;5027935;28;20518;-79
2021/12/30 08:08:34;;;;;;;22.40;14.43;;;8.40;78.60;;;;;;5022529;28;20080;-79
2021/12/30 08:11:00;;;;;;;19.17;14.83;;;8.40;78.60;;;;;;5027412;28;20026;-79
2021/12/30 08:13:27;;;;;;;31.47;18.37;;;8.40;78.60;;;;;;5027489;28;20026;-79
2021/12/30 08:15:53;;;;;;;21.43;14.13;;;8.40;78.70;;;;;;5024710;28;20711;-79
2021/12/30 08:18:19;;;;;;;20.47;12.73;;;8.40;78.60;;;;;;5025905;28;20026;-79
2021/12/30 08:20:45;;;;;;;13.53;10.40;;;8.30;78.80;;;;;;5028231;28;20025;-79
2021/12/30 08:23:11;;;;;;;14.93;11.80;;;8.30;79.00;;;;;;5028424;28;20048;-79
2021/12/30 08:25:37;;;;;;;21.73;16.67;;;8.40;78.90;;;;;;5023733;28;20033;-79
2021/12/30 08:28:03;;;;;;;23.80;16.10;;;8.40;79.00;;;;;;5029571;28;20119;-79
2021/12/30 08:30:29;;;;;;;21.93;16.43;;;8.40;79.20;;;;;;5013015;28;20528;-79
2021/12/30 08:32:55;;;;;;;16.13;12.03;;;8.50;78.90;;;;;;5030495;28;20022;-79
2021/12/30 08:35:21;;;;;;;12.80;9.23;;;8.40;78.70;;;;;;5030449;28;20025;-79
2021/12/30 08:37:47;;;;;;;9.47;8.00;;;8.40;78.90;;;;;;5029594;28;20025;-79
2021/12/30 08:40:14;;;;;;;12.00;8.40;;;8.50;78.90;;;;;;5029715;28;20037;-79
2021/12/30 08:42:42;;;;;;;11.63;9.83;;;8.40;78.80;;;;;;5030787;28;20384;-79
2021/12/30 08:45:08;;;;;;;17.03;12.60;;;8.40;79.00;;;;;;5031900;28;20125;-79
2021/12/30 08:47:34;;;;;;;18.17;13.07;;;8.30;79.30;;;;;;5029597;28;20378;-79
2021/12/30 08:50:01;;;;;;;13.23;9.70;;;8.40;79.60;;;;;;5001993;28;20041;-79
2021/12/30 08:52:28;;;;;;;16.37;12.53;;;8.40;79.50;;;;;;5041013;28;20033;-79
2021/12/30 08:54:56;;;;;;;15.37;12.00;;;8.40;79.50;;;;;;5022729;28;20037;-79
2021/12/30 08:57:22;;;;;;;13.10;10.50;;;8.30;79.10;;;;;;5030509;28;20135;-79
2021/12/30 08:59:49;;;;;;;10.77;8.80;;;8.20;79.70;;;;;;5019871;28;21293;-79
2021/12/30 09:02:16;;;;;;;11.03;8.87;;;8.20;79.90;;;;;;5026963;28;20091;-79
2021/12/30 09:04:45;;;;;;;10.87;7.63;;;8.30;80.20;;;;;;5014047;28;20091;-79
2021/12/30 09:07:12;;;;;;;10.23;8.23;;;8.40;80.20;;;;;;5016697;28;20108;-79
2021/12/30 09:09:38;;;;;;;11.73;10.10;;;8.50;80.10;;;;;;5030390;28;20037;-79
2021/12/30 09:12:04;;;;;;;10.20;7.77;;;8.60;79.80;;;;;;5020296;28;20026;-79
2021/12/30 09:14:30;;;;;;;11.43;7.13;;;8.70;80.00;;;;;;5018708;28;20402;-79
2021/12/30 09:16:56;;;;;;;8.40;6.33;;;8.80;79.70;;;;;;5027073;28;20025;-79
2021/12/30 09:19:22;;;;;;;10.47;8.40;;;8.80;79.70;;;;;;5029610;28;20033;-79
2021/12/30 09:21:48;;;;;;;11.40;8.23;;;8.80;79.70;;;;;;5020715;28;20025;-79
2021/12/30 09:24:13;;;;;;;8.53;7.50;;;8.80;79.80;;;;;;5023245;28;20091;-79
2021/12/30 09:26:40;;;;;;;9.47;7.67;;;8.80;79.40;;;;;;5024082;28;20059;-79
2021/12/30 09:29:10;;;;;;;10.53;8.20;;;8.80;80.40;;;;;;5023165;28;20026;-79
2021/12/30 09:31:50;;;;;;;8.70;7.07;;;8.80;80.00;;;;;;5016600;28;20032;-79
2021/12/30 09:34:17;;;;;;;9.03;5.97;;;8.80;80.10;;;;;;5029057;28;20044;-79
2021/12/30 09:36:43;;;;;;;8.60;6.63;;;8.90;80.30;;;;;;5024987;28;20120;-79
2021/12/30 09:39:11;;;;;;;7.33;6.33;;;8.90;80.20;;;;;;5030534;28;20558;-79
2021/12/30 09:41:44;;;;;;;23.23;13.13;;;9.00;80.50;;;;;;5026726;28;20029;-79
2021/12/30 09:44:12;;;;;;;15.50;9.82;;;9.00;80.50;;;;;;5001974;28;20062;-80
2021/12/30 09:46:38;;;;;;;13.50;9.33;;;9.10;80.50;;;;;;5029650;28;20052;-79
2021/12/30 09:49:06;;;;;;;11.93;9.10;;;9.10;80.50;;;;;;5033091;28;20041;-79
2021/12/30 09:51:32;;;;;;;15.23;11.57;;;9.10;80.50;;;;;;5031130;28;20032;-79
2021/12/30 09:54:00;;;;;;;15.47;11.57;;;9.20;80.60;;;;;;5026385;28;20371;-79
2021/12/30 09:56:27;;;;;;;12.07;9.40;;;9.20;80.50;;;;;;5025535;28;20022;-79
2021/12/30 09:58:53;;;;;;;14.10;10.73;;;9.20;80.50;;;;;;5022352;28;20495;-79
2021/12/30 10:01:19;;;;;;;12.63;9.77;;;9.30;80.60;;;;;;5034591;28;20515;-79
2021/12/30 10:03:46;;;;;;;11.07;8.97;;;9.20;80.50;;;;;;5031188;28;20033;-79
2021/12/30 10:06:15;;;;;;;10.60;8.07;;;9.20;80.80;;;;;;5031037;28;20057;-79
2021/12/30 10:08:53;;;;;;;10.43;8.13;;;9.20;80.80;;;;;;5029893;28;20035;-79
2021/12/30 10:11:19;;;;;;;12.57;9.57;;;9.30;80.90;;;;;;5025043;28;20021;-79
2021/12/30 10:13:59;;;;;;;16.67;10.50;;;9.30;80.70;;;;;;5028107;28;20180;-79
2021/12/30 10:16:25;;;;;;;13.50;8.93;;;9.30;80.90;;;;;;5020488;28;20030;-80
2021/12/30 10:19:02;;;;;;;14.30;9.43;;;9.30;80.80;;;;;;5023921;28;20044;-79
2021/12/30 10:21:40;;;;;;;13.43;9.97;;;9.30;80.70;;;;;;5018140;28;20045;-79
2021/12/30 10:24:11;;;;;;;12.80;8.93;;;9.30;80.70;;;;;;5019230;28;20109;-79
2021/12/30 10:26:51;;;;;;;16.33;10.30;;;9.30;80.80;;;;;;5023218;28;20068;-79
2021/12/30 10:29:17;;;;;;;11.53;9.47;;;9.30;80.90;;;;;;5032439;28;20029;-79
2021/12/30 10:31:44;;;;;;;21.00;10.87;;;9.30;80.70;;;;;;5016742;28;20022;-79
2021/12/30 10:34:11;;;;;;;12.83;9.87;;;9.30;81.00;;;;;;5026111;28;20021;-79
2021/12/30 10:36:44;;;;;;;18.03;11.60;;;9.30;81.10;;;;;;5030429;28;20021;-79
2021/12/30 10:39:28;;;;;;;13.37;9.90;;;9.30;81.00;;;;;;5024636;28;20453;-79
2021/12/30 10:42:21;;;;;;;11.00;8.83;;;9.30;81.10;;;;;;5024767;28;20148;-79
2021/12/30 10:44:51;;;;;;;;;;;9.20;81.00;;;;;;5028248;28;20095;-79
2021/12/30 10:47:18;;;;;;;11.90;8.80;;;9.20;81.10;;;;;;5027202;28;20408;-79
2021/12/30 10:50:04;;;;;;;12.43;8.17;;;9.20;80.90;;;;;;5029054;28;20113;-79
2021/12/30 10:52:30;;;;;;;13.27;10.87;;;9.20;81.10;;;;;;5028358;28;20384;-79
2021/12/30 10:54:59;;;;;;;18.60;12.57;;;9.20;81.40;;;;;;5025270;28;20066;-79
2021/12/30 10:57:29;;;;;;;14.90;11.43;;;9.20;81.30;;;;;;5032091;28;20053;-79
2021/12/30 10:59:56;;;;;;;13.27;10.77;;;9.30;81.40;;;;;;5028112;28;20494;-79
2021/12/30 11:02:26;;;;;;;14.40;10.37;;;9.40;81.70;;;;;;5026134;28;20079;-79
2021/12/30 11:04:54;;;;;;;14.00;11.03;;;9.50;81.00;;;;;;5027339;28;20026;-79
2021/12/30 11:07:26;;;;;;;13.53;10.30;;;9.50;80.90;;;;;;5024775;28;20038;-79
2021/12/30 11:09:55;;;;;;;11.80;7.95;;;9.60;81.00;;;;;;5027352;28;20076;-79
2021/12/30 11:12:43;;;;;;;10.30;7.53;;;9.60;80.80;;;;;;5026639;28;20025;-79
2021/12/30 11:15:20;;;;;;;10.47;7.30;;;9.40;80.80;;;;;;5023313;28;20099;-79
2021/12/30 11:17:46;;;;;;;8.57;7.13;;;9.50;81.50;;;;;;5016310;28;20638;-79
2021/12/30 11:20:15;;;;;;;12.43;7.23;;;9.40;80.90;;;;;;5021413;28;20101;-79
2021/12/30 11:22:40;;;;;;;10.00;7.33;;;9.30;81.10;;;;;;5027228;28;20495;-79
2021/12/30 11:25:10;;;;;;;10.87;7.63;;;9.20;81.40;;;;;;5021703;28;20029;-79
2021/12/30 11:27:37;;;;;;;13.37;8.60;;;9.20;82.00;;;;;;5028255;28;20029;-79
2021/12/30 11:30:17;;;;;;;10.10;8.13;;;9.20;81.50;;;;;;5031044;28;20048;-79
2021/12/30 11:32:47;;;;;;;12.13;8.73;;;9.20;81.60;;;;;;5028204;28;20111;-79
2021/12/30 11:35:14;;;;;;;12.63;9.50;;;9.10;82.00;;;;;;5030646;28;20028;-80
2021/12/30 11:37:40;;;;;;;12.07;8.17;;;9.20;82.20;;;;;;5026642;28;20036;-80
2021/12/30 11:40:17;;;;;;;11.73;8.80;;;9.30;82.70;;;;;;5028835;28;20029;-80
2021/12/30 11:42:52;;;;;;;14.53;9.93;;;9.30;81.60;;;;;;5023271;28;20033;-80
2021/12/30 11:45:39;;;;;;;11.83;8.83;;;9.30;81.80;;;;;;5020932;28;20052;-80
2021/12/30 11:48:27;;;;;;;14.30;9.33;;;9.30;82.00;;;;;;5019651;28;20132;-80
2021/12/30 11:51:08;;;;;;;11.37;7.93;;;9.20;82.00;;;;;;5025216;28;20064;-80
2021/12/30 11:53:33;;;;;;;9.60;7.20;;;9.30;82.60;;;;;;5022403;28;20405;-80
2021/12/30 11:55:59;;;;;;;11.87;8.63;;;9.40;82.50;;;;;;5018082;28;20049;-80
2021/12/30 11:58:31;;;;;;;11.50;7.70;;;9.50;81.70;;;;;;5035407;28;20033;-80
2021/12/30 12:01:21;;;;;;;14.35;6.70;;;9.50;81.80;;;;;;5031007;28;20064;-80
2021/12/30 12:03:53;;;;;;;8.03;6.40;;;9.70;81.40;;;;;;5023073;28;20445;-80
2021/12/30 12:06:24;;;;;;;10.05;7.10;;;9.80;81.20;;;;;;5030917;28;20025;-80
2021/12/30 12:08:56;;;;;;;10.57;7.23;;;9.90;80.50;;;;;;5026963;28;20036;-80
2021/12/30 12:11:31;;;;;;;9.87;7.03;;;9.90;80.70;;;;;;5023350;28;20022;-80
2021/12/30 12:14:13;;;;;;;7.60;5.13;;;9.80;80.90;;;;;;5027428;28;20049;-80
2021/12/30 12:17:19;;;;;;;6.73;4.90;;;9.90;81.20;;;;;;5024699;28;20026;-80
2021/12/30 12:19:51;;;;;;;7.47;5.30;;;10.20;80.70;;;;;;5030754;28;20026;-80
2021/12/30 12:22:17;;;;;;;5.93;5.32;;;10.10;80.00;;;;;;5026151;28;20063;-80
2021/12/30 12:24:50;;;;;;;9.47;6.43;;;10.10;80.40;;;;;;5026431;28;20021;-80
2021/12/30 12:27:19;;;;;;;10.87;8.37;;;10.10;80.40;;;;;;5015173;28;20551;-80
2021/12/30 12:29:49;;;;;;;8.77;6.07;;;10.10;80.50;;;;;;5022254;28;20083;-80
2021/12/30 12:32:19;;;;;;;14.73;11.30;;;10.10;80.90;;;;;;5030067;28;20028;-80
2021/12/30 12:34:50;;;;;;;10.10;8.90;;;10.10;80.80;;;;;;5020809;28;20582;-80
2021/12/30 12:37:39;;;;;;;10.57;8.63;;;10.00;80.80;;;;;;5015979;28;20084;-80
2021/12/30 12:40:11;;;;;;;8.93;7.07;;;10.10;81.30;;;;;;5011388;28;20022;-80
2021/12/30 12:42:43;;;;;;;10.73;8.77;;;10.10;81.30;;;;;;5026750;28;20044;-80
2021/12/30 12:45:37;;;;;;;11.07;7.80;;;10.10;81.30;;;;;;5029607;28;20172;-80
2021/12/30 12:48:18;;;;;;;9.83;6.93;;;10.20;81.40;;;;;;5031778;28;20476;-80
2021/12/30 12:50:44;;;;;;;9.47;8.20;;;10.20;81.20;;;;;;5027257;28;20022;-80
2021/12/30 12:53:38;;;;;;;10.47;8.43;;;10.30;81.20;;;;;;5010832;28;20033;-80
2021/12/30 12:56:16;;;;;;;12.27;8.90;;;10.30;81.10;;;;;;5011024;28;20029;-80